createdAt,value
2019-06-01T00:00:51.272Z,99.90
2019-06-01T00:03:24.474Z,99.90
2019-06-01T00:05:55.463Z,99.90
2019-06-01T00:08:26.935Z,99.90
2019-06-01T00:10:58.880Z,99.90
2019-06-01T00:13:29.875Z,99.90
2019-06-01T00:16:02.854Z,99.90
2019-06-01T00:18:35.134Z,99.90
2019-06-01T00:21:06.523Z,99.90
2019-06-01T00:23:38.330Z,99.90
2019-06-01T00:26:10.097Z,99.90
2019-06-01T00:28:42.070Z,99.90
2019-06-01T00:31:13.062Z,99.90
2019-06-01T00:33:45.421Z,99.90
2019-06-01T00:36:16.842Z,99.90
2019-06-01T00:38:48.358Z,99.90
2019-06-01T00:41:20.922Z,99.90
2019-06-01T00:43:52.589Z,99.90
2019-06-01T00:46:23.657Z,99.90
2019-06-01T00:48:55.026Z,99.90
2019-06-01T00:51:27.442Z,99.90
2019-06-01T00:53:58.727Z,99.90
2019-06-01T00:56:30.579Z,99.90
2019-06-01T00:59:01.582Z,99.90
2019-06-01T01:01:33.479Z,99.90
2019-06-01T01:04:04.802Z,99.90
2019-06-01T01:06:36.687Z,99.90
2019-06-01T01:09:10.265Z,99.90
2019-06-01T01:11:42.143Z,99.90
2019-06-01T01:14:13.399Z,99.90
2019-06-01T01:16:45.501Z,99.90
2019-06-01T01:19:17.838Z,99.90
2019-06-01T01:21:52.159Z,99.90
2019-06-01T01:24:23.567Z,99.90
2019-06-01T01:26:55.250Z,99.90
2019-06-01T01:29:27.211Z,99.90
2019-06-01T01:31:58.951Z,99.90
2019-06-01T01:34:30.893Z,99.90
2019-06-01T01:37:02.155Z,99.90
2019-06-01T01:39:33.416Z,99.90
2019-06-01T01:42:04.802Z,99.90
2019-06-01T01:44:35.810Z,99.90
2019-06-01T01:47:07.436Z,99.90
2019-06-01T01:49:38.753Z,99.90
2019-06-01T01:52:10.591Z,99.90
2019-06-01T01:54:42.255Z,99.90
2019-06-01T01:57:13.531Z,99.90
2019-06-01T01:59:45.097Z,99.90
2019-06-01T02:02:16.898Z,99.90
2019-06-01T02:04:48.214Z,99.90
2019-06-01T02:07:20.217Z,99.90
2019-06-01T02:09:53.032Z,99.90
2019-06-01T02:12:24.897Z,99.90
2019-06-01T02:14:57.683Z,99.90
2019-06-01T02:17:29.455Z,99.90
2019-06-01T02:20:02.582Z,99.90
2019-06-01T02:22:34.156Z,99.90
2019-06-01T02:25:06.367Z,99.90
2019-06-01T02:27:38.147Z,99.90
2019-06-01T02:30:11.206Z,99.90
2019-06-01T02:32:42.782Z,99.90
2019-06-01T02:35:14.588Z,99.90
2019-06-01T02:37:46.157Z,99.90
2019-06-01T02:40:20.604Z,99.90
2019-06-01T02:42:51.935Z,99.90
2019-06-01T02:45:24.184Z,99.90
2019-06-01T02:47:57.342Z,99.90
2019-06-01T02:50:28.668Z,99.90
2019-06-01T02:53:01.534Z,99.90
2019-06-01T02:55:32.973Z,99.90
2019-06-01T02:58:04.558Z,99.90
2019-06-01T03:01:55.958Z,99.90
2019-06-01T03:04:16.026Z,99.90
2019-06-01T03:06:50.465Z,99.90
2019-06-01T03:09:26.055Z,99.90
2019-06-01T03:12:02.448Z,99.90
2019-06-01T03:14:37.231Z,99.90
2019-06-01T03:17:13.361Z,99.90
2019-06-01T03:19:48.414Z,99.90
2019-06-01T03:22:23.772Z,99.90
2019-06-01T03:24:57.891Z,99.90
2019-06-01T03:27:33.407Z,99.90
2019-06-01T03:30:11.615Z,99.90
2019-06-01T03:32:42.352Z,99.90
2019-06-01T03:35:14.134Z,99.90
2019-06-01T03:37:45.365Z,99.90
2019-06-01T03:40:23.692Z,99.90
2019-06-01T03:42:50.635Z,99.90
2019-06-01T03:45:22.224Z,99.90
2019-06-01T03:47:54.359Z,99.90
2019-06-01T03:50:25.659Z,99.90
2019-06-01T03:52:57.628Z,99.90
2019-06-01T03:55:28.937Z,99.90
2019-06-01T03:58:00.954Z,99.90
2019-06-01T04:00:32.891Z,99.90
2019-06-01T04:03:05.119Z,99.90
2019-06-01T04:05:36.738Z,99.90
2019-06-01T04:08:09.598Z,99.90
2019-06-01T04:10:41.687Z,99.90
2019-06-01T04:13:14.091Z,99.90
2019-06-01T04:15:45.707Z,99.90
2019-06-01T04:18:17.239Z,99.90
2019-06-01T04:20:48.722Z,99.90
2019-06-01T04:23:20.034Z,99.90
2019-06-01T04:25:51.689Z,99.90
2019-06-01T04:28:23.574Z,99.90
2019-06-01T04:30:54.928Z,99.90
2019-06-01T04:33:26.819Z,99.90
2019-06-01T04:35:58.116Z,99.90
2019-06-01T04:38:29.476Z,99.90
2019-06-01T04:41:01.500Z,99.90
2019-06-01T04:43:33.399Z,99.90
2019-06-01T04:46:06.119Z,99.90
2019-06-01T04:48:37.501Z,99.90
2019-06-01T04:51:09.278Z,99.90
2019-06-01T04:53:40.536Z,99.90
2019-06-01T04:56:13.090Z,99.90
2019-06-01T04:58:44.871Z,99.90
2019-06-01T05:01:16.391Z,99.90
2019-06-01T05:03:48.078Z,99.90
2019-06-01T05:06:20.167Z,99.90
2019-06-01T05:08:51.758Z,99.90
2019-06-01T05:11:22.757Z,99.90
2019-06-01T05:13:54.376Z,99.90
2019-06-01T05:16:26.736Z,99.90
2019-06-01T05:18:58.499Z,99.90
2019-06-01T05:21:30.474Z,99.90
2019-06-01T05:24:02.097Z,99.90
2019-06-01T05:26:33.985Z,99.90
2019-06-01T05:29:07.348Z,99.90
2019-06-01T05:31:39.490Z,99.90
2019-06-01T05:34:11.812Z,99.90
2019-06-01T05:36:44.106Z,99.90
2019-06-01T05:39:16.409Z,99.90
2019-06-01T05:41:48.666Z,99.90
2019-06-01T05:44:20.246Z,99.90
2019-06-01T05:46:51.828Z,99.90
2019-06-01T05:49:23.396Z,99.90
2019-06-01T05:51:54.730Z,99.90
2019-06-01T05:54:26.636Z,99.90
2019-06-01T05:56:59.286Z,99.90
2019-06-01T05:59:31.407Z,99.90
2019-06-01T06:02:03.152Z,99.90
2019-06-01T06:04:34.897Z,99.90
2019-06-01T06:07:06.658Z,99.90
2019-06-01T06:09:38.401Z,96.10
2019-06-01T06:12:11.251Z,92.60
2019-06-01T06:14:43.520Z,88.90
2019-06-01T06:17:17.431Z,85.20
2019-06-01T06:19:48.178Z,82.00
2019-06-01T06:22:20.329Z,78.00
2019-06-01T06:24:51.722Z,78.50
2019-06-01T06:27:23.286Z,79.80
2019-06-01T06:29:54.291Z,77.00
2019-06-01T06:32:25.286Z,71.80
2019-06-01T06:34:56.948Z,70.10
2019-06-01T06:37:28.485Z,68.50
2019-06-01T06:39:59.725Z,64.10
2019-06-01T06:42:30.956Z,63.90
2019-06-01T06:45:03.713Z,64.90
2019-06-01T06:47:35.883Z,62.60
2019-06-01T06:50:07.689Z,60.40
2019-06-01T06:52:39.488Z,57.80
2019-06-01T06:55:11.408Z,57.70
2019-06-01T06:57:43.972Z,57.80
2019-06-01T07:00:16.359Z,57.20
2019-06-01T07:02:48.027Z,57.70
2019-06-01T07:05:21.265Z,57.60
2019-06-01T07:07:53.269Z,57.00
2019-06-01T07:10:24.524Z,56.30
2019-06-01T07:12:58.104Z,57.60
2019-06-01T07:15:31.669Z,57.20
2019-06-01T07:18:02.887Z,56.90
2019-06-01T07:20:34.375Z,56.90
2019-06-01T07:23:05.742Z,56.40
2019-06-01T07:25:37.630Z,55.90
2019-06-01T07:28:09.391Z,55.30
2019-06-01T07:30:49.638Z,55.50
2019-06-01T07:33:13.930Z,57.40
2019-06-01T07:35:45.805Z,56.60
2019-06-01T07:38:17.679Z,55.60
2019-06-01T07:40:48.969Z,55.40
2019-06-01T07:43:20.956Z,54.40
2019-06-01T07:45:52.547Z,54.90
2019-06-01T07:48:24.972Z,55.00
2019-06-01T07:50:56.469Z,55.50
2019-06-01T07:53:29.410Z,54.80
2019-06-01T07:56:00.971Z,54.80
2019-06-01T07:58:32.932Z,55.30
2019-06-01T08:01:04.415Z,56.30
2019-06-01T08:03:36.243Z,56.60
2019-06-01T08:06:07.589Z,55.90
2019-06-01T08:08:38.912Z,58.40
2019-06-01T08:11:10.803Z,55.80
2019-06-01T08:13:42.413Z,55.90
2019-06-01T08:16:14.027Z,56.60
2019-06-01T08:18:45.451Z,56.30
2019-06-01T08:21:17.311Z,57.00
2019-06-01T08:23:48.561Z,57.70
2019-06-01T08:26:20.262Z,57.10
2019-06-01T08:28:51.867Z,58.50
2019-06-01T08:31:24.543Z,59.90
2019-06-01T08:33:56.510Z,60.70
2019-06-01T08:36:29.506Z,60.80
2019-06-01T08:39:00.843Z,62.40
2019-06-01T08:41:33.740Z,62.50
2019-06-01T08:44:05.484Z,64.60
2019-06-01T08:46:36.982Z,63.50
2019-06-01T08:49:08.845Z,64.50
2019-06-01T08:51:40.132Z,65.80
2019-06-01T08:54:11.990Z,66.90
2019-06-01T08:56:43.859Z,69.20
2019-06-01T08:59:15.508Z,71.50
2019-06-01T09:01:47.524Z,72.50
2019-06-01T09:04:18.820Z,72.40
2019-06-01T09:06:50.819Z,71.40
2019-06-01T09:09:22.715Z,69.30
2019-06-01T09:11:54.830Z,69.50
2019-06-01T09:14:27.263Z,70.50
2019-06-01T09:16:58.276Z,69.40
2019-06-01T09:19:29.941Z,69.50
2019-06-01T09:22:01.254Z,70.10
2019-06-01T09:24:33.968Z,69.80
2019-06-01T09:27:05.467Z,71.60
2019-06-01T09:29:37.105Z,71.50
2019-06-01T09:32:11.084Z,73.30
2019-06-01T09:34:42.579Z,70.60
2019-06-01T09:37:14.445Z,70.00
2019-06-01T09:39:46.079Z,67.30
2019-06-01T09:42:17.746Z,67.30
2019-06-01T09:44:50.436Z,67.20
2019-06-01T09:47:22.077Z,68.90
2019-06-01T09:49:53.532Z,68.30
2019-06-01T09:52:25.388Z,67.80
2019-06-01T09:54:56.638Z,66.30
2019-06-01T09:57:29.779Z,64.40
2019-06-01T10:00:01.162Z,65.10
2019-06-01T10:02:32.619Z,65.20
2019-06-01T10:05:04.016Z,65.60
2019-06-01T10:07:37.047Z,64.70
2019-06-01T10:10:08.937Z,63.00
2019-06-01T10:12:40.550Z,65.60
2019-06-01T10:15:12.001Z,64.90
2019-06-01T10:17:43.984Z,65.40
2019-06-01T10:20:15.437Z,67.10
2019-06-01T10:22:47.558Z,66.60
2019-06-01T10:25:19.526Z,66.10
2019-06-01T10:27:51.285Z,67.40
2019-06-01T10:30:23.035Z,66.60
2019-06-01T10:32:54.864Z,67.30
2019-06-01T10:35:27.306Z,66.40
2019-06-01T10:37:59.234Z,67.20
2019-06-01T10:40:31.220Z,67.50
2019-06-01T10:43:02.839Z,67.90
2019-06-01T10:45:35.708Z,66.30
2019-06-01T10:48:07.520Z,68.80
2019-06-01T10:50:40.486Z,71.90
2019-06-01T10:53:12.040Z,74.10
2019-06-01T10:55:43.390Z,75.70
2019-06-01T10:58:14.928Z,78.90
2019-06-01T11:00:50.817Z,79.10
2019-06-01T11:03:19.557Z,81.20
2019-06-01T11:05:51.417Z,81.00
2019-06-01T11:08:23.018Z,82.10
2019-06-01T11:10:55.084Z,84.00
2019-06-01T11:13:26.159Z,84.70
2019-06-01T11:15:57.840Z,84.90
2019-06-01T11:18:30.026Z,87.10
2019-06-01T11:21:01.896Z,84.80
2019-06-01T11:23:33.486Z,85.60
2019-06-01T11:26:04.439Z,85.80
2019-06-01T11:28:36.263Z,86.10
2019-06-01T11:31:07.960Z,85.00
2019-06-01T11:33:40.120Z,85.80
2019-06-01T11:36:12.331Z,86.10
2019-06-01T11:38:44.840Z,84.80
2019-06-01T11:41:19.043Z,88.10
2019-06-01T11:43:50.414Z,86.50
2019-06-01T11:46:21.723Z,88.40
2019-06-01T11:48:53.986Z,88.50
2019-06-01T11:51:25.605Z,87.20
2019-06-01T11:53:57.220Z,86.10
2019-06-01T11:56:29.164Z,83.90
2019-06-01T11:59:01.073Z,84.80
2019-06-01T12:01:32.781Z,86.20
2019-06-01T12:04:04.138Z,86.60
2019-06-01T12:06:35.684Z,86.00
2019-06-01T12:09:09.421Z,88.20
2019-06-01T12:11:40.530Z,89.10
2019-06-01T12:14:11.868Z,90.10
2019-06-01T12:16:44.733Z,90.30
2019-06-01T12:19:17.228Z,90.20
2019-06-01T12:21:48.638Z,88.90
2019-06-01T12:24:25.447Z,88.60
2019-06-01T12:26:54.480Z,87.20
2019-06-01T12:29:26.334Z,89.00
2019-06-01T12:31:57.655Z,90.10
2019-06-01T12:34:29.821Z,89.10
2019-06-01T12:37:01.468Z,91.00
2019-06-01T12:39:33.372Z,90.50
2019-06-01T12:42:04.603Z,90.00
2019-06-01T12:44:36.236Z,90.40
2019-06-01T12:47:07.586Z,91.80
2019-06-01T12:49:40.138Z,91.60
2019-06-01T12:52:11.816Z,93.60
2019-06-01T12:54:43.265Z,92.60
2019-06-01T12:57:15.088Z,92.10
2019-06-01T12:59:47.457Z,93.00
2019-06-01T13:02:18.834Z,93.20
2019-06-01T13:04:50.622Z,93.40
2019-06-01T13:07:21.948Z,92.70
2019-06-01T13:09:53.165Z,93.40
2019-06-01T13:12:24.957Z,94.00
2019-06-01T13:14:56.848Z,93.30
2019-06-01T13:17:28.120Z,93.20
2019-06-01T13:19:59.157Z,94.50
2019-06-01T13:22:31.156Z,93.60
2019-06-01T13:25:02.710Z,93.70
2019-06-01T13:27:34.066Z,93.60
2019-06-01T13:30:05.930Z,93.70
2019-06-01T13:32:37.782Z,93.60
2019-06-01T13:35:09.824Z,94.30
2019-06-01T13:37:42.691Z,92.80
2019-06-01T13:40:14.944Z,92.50
2019-06-01T13:42:47.159Z,92.30
2019-06-01T13:45:18.422Z,92.70
2019-06-01T13:47:50.269Z,93.80
2019-06-01T13:50:22.204Z,93.60
2019-06-01T13:52:54.181Z,93.10
2019-06-01T13:55:26.462Z,93.30
2019-06-01T13:57:58.552Z,93.10
2019-06-01T14:00:30.950Z,93.40
2019-06-01T14:03:02.606Z,93.00
2019-06-01T14:05:34.715Z,93.00
2019-06-01T14:08:05.782Z,92.80
2019-06-01T14:10:37.387Z,92.10
2019-06-01T14:13:08.923Z,92.20
2019-06-01T14:15:40.770Z,91.80
2019-06-01T14:18:12.479Z,91.90
2019-06-01T14:20:43.887Z,91.70
2019-06-01T14:23:15.407Z,92.10
2019-06-01T14:25:47.994Z,91.90
2019-06-01T14:28:19.887Z,91.80
2019-06-01T14:30:52.283Z,91.60
2019-06-01T14:33:23.831Z,90.90
2019-06-01T14:35:55.111Z,91.00
2019-06-01T14:38:26.946Z,91.60
2019-06-01T14:40:58.475Z,91.30
2019-06-01T14:43:30.259Z,91.70
2019-06-01T14:46:01.809Z,91.10
2019-06-01T14:48:33.631Z,91.40
2019-06-01T14:51:04.651Z,91.40
2019-06-01T14:53:35.959Z,91.10
2019-06-01T14:56:07.254Z,91.40
2019-06-01T14:58:38.525Z,91.50
2019-06-01T15:01:10.815Z,91.30
2019-06-01T15:03:42.098Z,91.10
2019-06-01T15:06:13.717Z,91.60
2019-06-01T15:08:45.122Z,91.20
2019-06-01T15:11:16.408Z,91.80
2019-06-01T15:13:48.259Z,92.20
2019-06-01T15:16:19.597Z,92.70
2019-06-01T15:18:51.564Z,91.90
2019-06-01T15:21:23.843Z,92.10
2019-06-01T15:23:56.672Z,92.30
2019-06-01T15:26:28.090Z,92.80
2019-06-01T15:29:00.618Z,92.40
2019-06-01T15:31:32.478Z,92.10
2019-06-01T15:34:04.932Z,91.70
2019-06-01T15:36:36.514Z,91.30
2019-06-01T15:39:23.624Z,90.80
2019-06-01T15:41:43.199Z,90.90
2019-06-01T15:44:15.157Z,90.80
2019-06-01T15:46:47.372Z,91.80
2019-06-01T15:49:18.963Z,91.30
2019-06-01T15:51:49.986Z,90.70
2019-06-01T15:54:21.870Z,91.30
2019-06-01T15:56:54.330Z,91.60
2019-06-01T15:59:25.894Z,91.40
2019-06-01T16:01:59.188Z,91.30
2019-06-01T16:04:30.389Z,91.90
2019-06-01T16:07:03.459Z,91.50
2019-06-01T16:09:42.549Z,91.10
2019-06-01T16:12:09.312Z,90.70
2019-06-01T16:14:40.702Z,90.60
2019-06-01T16:17:11.697Z,90.50
2019-06-01T16:19:43.267Z,90.90
2019-06-01T16:22:14.533Z,91.00
2019-06-01T16:24:46.375Z,91.10
2019-06-01T16:27:17.719Z,91.60
2019-06-01T16:29:49.040Z,92.00
2019-06-01T16:32:20.041Z,91.90
2019-06-01T16:34:52.650Z,91.80
2019-06-01T16:37:23.911Z,91.70
2019-06-01T16:39:59.714Z,92.20
2019-06-01T16:42:28.762Z,92.00
2019-06-01T16:45:00.105Z,92.00
2019-06-01T16:47:31.995Z,92.10
2019-06-01T16:50:03.864Z,92.00
2019-06-01T16:52:35.223Z,91.70
2019-06-01T16:55:07.812Z,92.60
2019-06-01T16:57:39.587Z,92.70
2019-06-01T17:00:12.118Z,92.90
2019-06-01T17:02:44.196Z,92.70
2019-06-01T17:05:16.232Z,93.20
2019-06-01T17:07:48.564Z,93.00
2019-06-01T17:10:26.258Z,92.60
2019-06-01T17:12:54.163Z,92.90
2019-06-01T17:15:26.098Z,92.70
2019-06-01T17:18:01.807Z,93.00
2019-06-01T17:20:43.490Z,92.70
2019-06-01T17:23:32.924Z,93.00
2019-06-01T17:25:48.321Z,92.90
2019-06-01T17:28:19.922Z,93.00
2019-06-01T17:30:51.680Z,92.90
2019-06-01T17:33:23.555Z,92.80
2019-06-01T17:35:54.815Z,93.10
2019-06-01T17:38:26.482Z,93.20
2019-06-01T17:40:57.793Z,93.20
2019-06-01T17:43:29.338Z,92.80
2019-06-01T17:46:00.824Z,93.10
2019-06-01T17:48:32.693Z,93.30
2019-06-01T17:51:04.520Z,93.60
2019-06-01T17:53:36.394Z,93.80
2019-06-01T17:56:08.261Z,93.40
2019-06-01T17:58:40.314Z,93.80
2019-06-01T18:01:12.126Z,94.10
2019-06-01T18:03:44.107Z,94.50
2019-06-01T18:06:16.022Z,94.80
2019-06-01T18:08:47.303Z,95.20
2019-06-01T18:11:19.018Z,95.70
2019-06-01T18:13:50.527Z,95.50
2019-06-01T18:16:21.982Z,95.90
2019-06-01T18:18:53.536Z,96.70
2019-06-01T18:21:25.323Z,98.30
2019-06-01T18:23:57.358Z,99.80
2019-06-01T18:26:29.294Z,99.90
2019-06-01T18:29:02.406Z,99.90
2019-06-01T18:31:33.743Z,99.90
2019-06-01T18:34:05.477Z,99.90
2019-06-01T18:36:36.843Z,99.90
2019-06-01T18:39:09.590Z,99.90
2019-06-01T18:41:41.452Z,99.90
2019-06-01T18:44:14.045Z,99.90
2019-06-01T18:46:45.839Z,99.90
2019-06-01T18:49:18.255Z,99.90
2019-06-01T18:51:50.311Z,99.90
2019-06-01T18:54:22.496Z,99.90
2019-06-01T18:57:09.050Z,99.90
2019-06-01T18:59:27.278Z,99.90
2019-06-01T19:01:58.871Z,99.90
2019-06-01T19:04:30.383Z,99.90
2019-06-01T19:07:02.503Z,99.90
2019-06-01T19:09:33.587Z,99.90
2019-06-01T19:12:05.085Z,99.90
2019-06-01T19:14:36.429Z,99.90
2019-06-01T19:17:08.335Z,99.90
2019-06-01T19:19:39.595Z,99.90
2019-06-01T19:22:10.564Z,99.90
2019-06-01T19:24:42.248Z,99.90
2019-06-01T19:27:14.915Z,99.90
2019-06-01T19:29:46.791Z,99.90
2019-06-01T19:32:21.204Z,99.90
2019-06-01T19:34:52.225Z,99.90
2019-06-01T19:37:25.556Z,99.90
2019-06-01T19:39:57.821Z,99.90
2019-06-01T19:42:29.344Z,99.90
2019-06-01T19:45:01.427Z,99.90
2019-06-01T19:47:33.276Z,99.90
2019-06-01T19:50:06.355Z,99.90
2019-06-01T19:52:37.665Z,99.90
2019-06-01T19:55:10.720Z,99.90
2019-06-01T19:57:42.512Z,99.90
2019-06-01T20:00:14.341Z,99.90
2019-06-01T20:02:46.395Z,99.90
2019-06-01T20:05:18.787Z,99.90
2019-06-01T20:07:50.582Z,99.90
2019-06-01T20:10:22.650Z,99.90
2019-06-01T20:12:54.830Z,99.90
2019-06-01T20:15:26.687Z,99.90
2019-06-01T20:17:58.313Z,99.90
2019-06-01T20:20:29.653Z,99.90
2019-06-01T20:23:01.428Z,99.90
2019-06-01T20:25:32.990Z,99.90
2019-06-01T20:28:04.067Z,99.90
2019-06-01T20:30:35.346Z,99.90
2019-06-01T20:33:06.406Z,99.90
2019-06-01T20:35:37.890Z,99.90
2019-06-01T20:38:09.499Z,99.90
2019-06-01T20:40:41.554Z,99.90
2019-06-01T20:43:14.529Z,99.90
2019-06-01T20:45:46.647Z,99.90
2019-06-01T20:48:18.829Z,99.90
2019-06-01T20:50:50.383Z,99.90
2019-06-01T20:53:23.258Z,99.90
2019-06-01T20:55:54.662Z,99.90
2019-06-01T20:58:26.026Z,99.90
2019-06-01T21:00:57.601Z,99.90
2019-06-01T21:03:28.913Z,99.90
2019-06-01T21:05:59.911Z,99.90
2019-06-01T21:08:31.853Z,99.90
2019-06-01T21:11:03.173Z,99.90
2019-06-01T21:13:34.954Z,99.90
2019-06-01T21:16:06.363Z,99.90
2019-06-01T21:18:37.957Z,99.90
2019-06-01T21:21:09.724Z,99.90
2019-06-01T21:23:41.030Z,99.90
2019-06-01T21:26:15.013Z,99.90
2019-06-01T21:28:46.727Z,99.90
2019-06-01T21:31:18.944Z,99.90
2019-06-01T21:33:50.308Z,99.90
2019-06-01T21:36:21.894Z,99.90
2019-06-01T21:38:53.699Z,99.90
2019-06-01T21:41:25.795Z,99.90
2019-06-01T21:43:57.475Z,99.90
2019-06-01T21:46:29.088Z,99.90
2019-06-01T21:49:00.129Z,99.90
2019-06-01T21:51:32.030Z,99.90
2019-06-01T21:54:03.380Z,99.90
2019-06-01T21:56:35.447Z,99.90
2019-06-01T21:59:07.174Z,99.90
2019-06-01T22:01:38.915Z,99.90
2019-06-01T22:04:10.199Z,99.90
2019-06-01T22:06:46.059Z,99.90
2019-06-01T22:09:14.674Z,99.90
2019-06-01T22:11:46.215Z,99.90
2019-06-01T22:14:19.321Z,99.90
2019-06-01T22:16:51.056Z,99.90
2019-06-01T22:19:23.902Z,99.90
2019-06-01T22:21:55.673Z,99.90
2019-06-01T22:24:28.196Z,99.90
2019-06-01T22:26:59.992Z,99.90
2019-06-01T22:29:31.063Z,99.90
2019-06-01T22:32:03.126Z,99.90
2019-06-01T22:34:34.984Z,99.90
2019-06-01T22:37:06.580Z,99.90
2019-06-01T22:39:38.480Z,99.90
2019-06-01T22:42:10.404Z,99.90
2019-06-01T22:44:41.967Z,99.90
2019-06-01T22:47:13.817Z,99.90
2019-06-01T22:49:45.126Z,99.90
2019-06-01T22:52:16.443Z,99.90
2019-06-01T22:54:48.338Z,99.90
2019-06-01T22:57:20.344Z,99.90
2019-06-01T22:59:52.701Z,99.90
2019-06-01T23:02:25.613Z,99.90
2019-06-01T23:04:57.556Z,99.90
2019-06-01T23:07:29.297Z,99.90
2019-06-01T23:10:01.200Z,99.90
2019-06-01T23:12:32.186Z,99.90
2019-06-01T23:15:03.251Z,99.90
2019-06-01T23:17:35.039Z,99.90
2019-06-01T23:20:07.762Z,99.90
2019-06-01T23:22:39.335Z,99.90
2019-06-01T23:25:10.829Z,99.90
2019-06-01T23:27:42.339Z,99.90
2019-06-01T23:30:14.322Z,99.90
2019-06-01T23:32:46.330Z,99.90
2019-06-01T23:35:17.352Z,99.90
2019-06-01T23:37:48.652Z,99.90
2019-06-01T23:40:20.246Z,99.90
2019-06-01T23:42:51.885Z,99.90
2019-06-01T23:45:24.571Z,99.90
2019-06-01T23:47:56.442Z,99.90
2019-06-01T23:50:27.670Z,99.90
2019-06-01T23:53:12.722Z,99.90
2019-06-01T23:55:34.141Z,99.90
2019-06-01T23:58:06.229Z,99.90
